Time;durP1;ratioP1;P1;durP2;ratioP2;P2;SDS_P1;SDS_P2;PMS_P1;PMS_P2;Temp;Humidity;BMP_temperature;BMP_pressure;BME280_temperature;BME280_humidity;BME280_pressure;Samples;Min_cycle;Max_cycle;Signal;HPM_P1;HPM_P2
2021/11/14 00:00:56;;;;;;;172.70;71.12;;;;;;;3.53;87.93;101023.08;1685606;83;27551;-72
2021/11/14 00:03:24;;;;;;;181.97;74.25;;;;;;;3.48;87.92;101024.45;1686435;83;25912;-72
2021/11/14 00:05:51;;;;;;;197.65;74.82;;;;;;;3.46;87.97;101023.58;1688249;82;98966;-72
2021/11/14 00:08:19;;;;;;;187.27;72.72;;;;;;;3.46;87.98;101035.95;1662166;84;26374;-71
2021/11/14 00:10:50;;;;;;;198.13;72.62;;;;;;;3.44;87.96;101039.94;1692120;81;99209;-71
2021/11/14 00:13:17;;;;;;;198.70;75.35;;;;;;;3.41;87.94;101045.70;1722272;81;27366;-74
2021/11/14 00:15:43;;;;;;;192.72;74.58;;;;;;;3.36;87.95;101036.47;1719349;81;26734;-74
2021/11/14 00:18:10;;;;;;;199.60;78.42;;;;;;;3.33;87.89;101041.79;1721886;81;98978;-72
2021/11/14 00:20:37;;;;;;;204.55;77.87;;;;;;;3.28;87.86;101038.30;1718221;81;25940;-73
2021/11/14 00:23:05;;;;;;;205.90;77.92;;;;;;;3.24;87.92;101037.44;1723443;81;99263;-72
2021/11/14 00:25:31;;;;;;;202.00;75.95;;;;;;;3.22;87.95;101035.69;1718587;81;27381;-73
2021/11/14 00:27:57;;;;;;;212.38;78.15;;;;;;;3.21;88.04;101032.61;1715189;81;25714;-74
2021/11/14 00:30:23;;;;;;;200.87;74.92;;;;;;;3.21;88.06;101029.96;1721996;81;99500;-71
2021/11/14 00:32:52;;;;;;;195.55;76.20;;;;;;;3.19;88.02;101033.94;1720964;81;27766;-72
2021/11/14 00:35:20;;;;;;;201.95;74.03;;;;;;;3.18;88.08;101031.30;1720656;81;99543;-73
2021/11/14 00:37:46;;;;;;;198.82;76.02;;;;;;;3.16;88.06;101033.09;1681541;83;27403;-72
2021/11/14 00:40:17;;;;;;;199.23;76.60;;;;;;;3.16;88.13;101037.94;1717349;81;99642;-71
2021/11/14 00:42:43;;;;;;;196.22;75.92;;;;;;;3.15;88.14;101044.13;1722598;81;25857;-71
2021/11/14 00:45:11;;;;;;;212.72;77.72;;;;;;;3.15;88.17;101048.55;1718805;81;25758;-71
2021/11/14 00:47:40;;;;;;;196.15;74.35;;;;;;;3.15;88.16;101053.39;1721767;81;98898;-71
2021/11/14 00:50:10;;;;;;;213.47;77.78;;;;;;;3.15;88.20;101052.52;1724123;81;28116;-73
2021/11/14 00:52:35;;;;;;;201.62;75.75;;;;;;;3.13;88.18;101059.14;1719230;81;99424;-72
2021/11/14 00:55:03;;;;;;;200.57;76.67;;;;;;;3.11;88.13;101057.39;1714959;81;25760;-72
2021/11/14 00:57:29;;;;;;;210.70;78.15;;;;;;;3.11;88.18;101062.25;1681475;83;25838;-71
2021/11/14 00:59:54;;;;;;;202.90;78.33;;;;;;;3.11;88.20;101060.05;1686422;82;99008;-72
2021/11/14 01:02:21;;;;;;;206.00;76.55;;;;;;;3.11;88.22;101060.05;1684547;83;29657;-72
2021/11/14 01:04:47;;;;;;;218.95;79.87;;;;;;;3.08;88.15;101058.74;1719001;81;99141;-71
2021/11/14 01:07:12;;;;;;;197.02;76.92;;;;;;;3.01;88.06;101063.19;1723458;81;25827;-71
2021/11/14 01:09:40;;;;;;;198.87;78.20;;;;;;;2.97;88.10;101071.16;1724595;81;27906;-72
2021/11/14 01:12:07;;;;;;;198.70;74.00;;;;;;;2.95;88.12;101065.88;1731805;80;99621;-73
2021/11/14 01:14:35;;;;;;;196.63;73.62;;;;;;;2.91;88.08;101063.69;1739301;80;27348;-72
2021/11/14 01:17:01;;;;;;;199.93;78.33;;;;;;;2.88;88.13;101068.12;1740139;80;99006;-72
2021/11/14 01:19:27;;;;;;;198.85;75.92;;;;;;;2.87;88.14;101071.66;1734830;80;26298;-72
2021/11/14 01:21:53;;;;;;;210.78;77.60;;;;;;;2.84;88.13;101070.34;1741826;80;25826;-72
2021/11/14 01:24:19;;;;;;;192.25;74.55;;;;;;;2.81;88.16;101075.22;1739684;80;99375;-72
2021/11/14 01:26:45;;;;;;;198.78;75.10;;;;;;;2.74;88.20;101058.05;1740639;80;27603;-75
2021/11/14 01:29:11;;;;;;;194.30;76.95;;;;;;;2.80;88.21;101073.45;1734591;80;98785;-71
2021/11/14 01:31:37;;;;;;;200.75;74.32;;;;;;;2.76;88.14;101087.59;1742079;80;25909;-72
2021/11/14 01:34:04;;;;;;;199.40;74.82;;;;;;;2.73;88.14;101088.05;1739620;80;26379;-72
2021/11/14 01:36:33;;;;;;;199.05;74.47;;;;;;;2.70;88.13;101088.06;1738323;80;98887;-71
2021/11/14 01:39:00;;;;;;;198.05;74.05;;;;;;;2.67;88.16;101082.78;1741681;80;27477;-71
2021/11/14 01:41:27;;;;;;;202.25;75.17;;;;;;;2.64;88.19;101092.94;1737964;80;99231;-74
2021/11/14 01:43:54;;;;;;;187.03;73.07;;;;;;;2.61;88.22;101092.95;1738283;80;25843;-72
2021/11/14 01:46:21;;;;;;;191.30;74.80;;;;;;;2.60;88.22;101097.84;1736657;80;99231;-71
2021/11/14 01:48:49;;;;;;;194.37;72.65;;;;;;;2.60;88.30;101093.86;1732413;80;25826;-73
2021/11/14 01:51:15;;;;;;;179.20;70.65;;;;;;;2.61;88.32;101096.91;1740738;80;27425;-72
2021/11/14 01:53:42;;;;;;;181.70;67.60;;;;;;;2.63;88.34;101100.44;1736159;80;98876;-72
2021/11/14 01:56:12;;;;;;;183.93;68.37;;;;;;;2.60;88.25;101101.80;1741252;80;25763;-73
2021/11/14 01:58:40;;;;;;;189.52;67.85;;;;;;;2.57;88.24;101105.34;1738847;80;99097;-74
2021/11/14 02:01:23;;;;;;;178.82;63.65;;;;;;;2.52;88.17;101112.86;1739397;80;25857;-72
2021/11/14 02:04:01;;;;;;;169.95;62.30;;;;;;;2.49;88.10;101123.45;1743809;80;27421;-71
2021/11/14 02:06:26;;;;;;;173.95;63.42;;;;;;;2.39;88.06;101120.39;1733491;80;98032;-71
2021/11/14 02:08:53;;;;;;;169.43;62.13;;;;;;;2.33;88.10;101120.41;1740393;80;25823;-71
2021/11/14 02:11:21;;;;;;;179.78;62.70;;;;;;;2.30;88.16;101125.26;1737617;80;99044;-71
2021/11/14 02:13:49;;;;;;;172.75;61.25;;;;;;;2.22;88.06;101126.59;1712989;82;26533;-72
2021/11/14 02:16:20;;;;;;;176.25;60.55;;;;;;;2.17;88.06;101132.77;1711061;82;99494;-71
2021/11/14 02:18:46;;;;;;;155.72;57.88;;;;;;;2.11;88.06;101138.95;1711859;82;25970;-72
2021/11/14 02:21:13;;;;;;;154.87;58.87;;;;;;;2.06;88.06;101130.14;1704428;82;25883;-72
2021/11/14 02:23:39;;;;;;;158.03;59.38;;;;;;;2.01;88.08;101139.84;1704201;82;98919;-72
2021/11/14 02:26:05;;;;;;;152.87;55.70;;;;;;;1.96;88.11;101141.60;1708819;82;25718;-72
2021/11/14 02:28:32;;;;;;;144.55;59.30;;;;;;;1.93;88.14;101136.31;1717457;82;99324;-72
2021/11/14 02:30:59;;;;;;;159.15;58.70;;;;;;;1.93;88.24;101137.64;1669765;84;25800;-72
2021/11/14 02:33:27;;;;;;;150.42;58.33;;;;;;;1.89;88.17;101131.91;1707377;82;26394;-71
2021/11/14 02:35:58;;;;;;;153.18;57.53;;;;;;;1.88;88.28;101134.11;1682192;83;99338;-72
2021/11/14 02:38:25;;;;;;;161.47;61.73;;;;;;;1.88;88.29;101132.35;1680705;83;25856;-72
2021/11/14 02:40:52;;;;;;;148.15;56.70;;;;;;;1.85;88.29;101134.99;1680116;83;99117;-72
2021/11/14 02:43:20;;;;;;;142.13;57.20;;;;;;;1.82;88.22;101137.64;1682967;83;25875;-71
2021/11/14 02:45:47;;;;;;;177.47;62.70;;;;;;;1.77;88.22;101135.88;1682898;83;26506;-72
2021/11/14 02:48:14;;;;;;;146.32;59.10;;;;;;;1.77;88.37;101144.69;1680436;83;98677;-72
2021/11/14 02:50:43;;;;;;;159.03;61.63;;;;;;;1.73;88.41;101144.24;1678671;83;25822;-72
2021/11/14 02:53:10;;;;;;;164.18;62.13;;;;;;;1.76;88.54;101140.72;1682309;83;98985;-71
2021/11/14 02:55:37;;;;;;;165.77;59.25;;;;;;;1.75;88.51;101144.24;1683980;83;26116;-71
2021/11/14 02:58:04;;;;;;;169.07;61.42;;;;;;;1.73;88.43;101144.68;1679730;83;25823;-73
2021/11/14 03:00:39;;;;;;;192.80;66.95;;;;;;;1.73;88.59;101149.97;1678472;83;98771;-71
2021/11/14 03:03:05;;;;;;;197.00;69.72;;;;;;;1.79;88.71;101142.04;1677534;83;25806;-74
2021/11/14 03:05:32;;;;;;;183.10;69.82;;;;;;;1.83;88.76;101147.33;1680252;83;98926;-72
2021/11/14 03:07:58;;;;;;;169.90;63.00;;;;;;;1.88;88.83;101149.53;1681683;83;26661;-72
2021/11/14 03:10:30;;;;;;;160.57;62.43;;;;;;;1.93;88.87;101153.50;1683192;83;99023;-71
2021/11/14 03:13:07;;;;;;;154.63;58.92;;;;;;;1.97;88.84;101150.41;1687522;83;25785;-72
2021/11/14 03:15:37;;;;;;;160.22;54.13;;;;;;;1.94;88.66;101159.23;1693025;83;26578;-72
2021/11/14 03:18:05;;;;;;;147.72;58.52;;;;;;;1.89;88.59;101156.58;1691589;83;98940;-72
2021/11/14 03:20:33;;;;;;;152.00;56.73;;;;;;;1.86;88.65;101169.80;1693095;83;25744;-72
2021/11/14 03:22:59;;;;;;;135.72;54.48;;;;;;;1.86;88.63;101170.23;1687791;83;98908;-71
2021/11/14 03:25:28;;;;;;;137.95;55.63;;;;;;;1.84;88.64;101169.36;1689277;83;27903;-72
2021/11/14 03:27:56;;;;;;;139.32;57.15;;;;;;;1.85;88.72;101173.77;1690704;83;25851;-72
2021/11/14 03:30:24;;;;;;;132.20;55.60;;;;;;;1.84;88.69;101174.20;1690085;83;98903;-73
2021/11/14 03:32:52;;;;;;;137.57;53.65;;;;;;;1.77;88.53;101178.16;1689725;83;25785;-74
2021/11/14 03:35:20;;;;;;;130.70;51.30;;;;;;;1.73;88.68;101177.27;1683914;83;98976;-72
2021/11/14 03:37:46;;;;;;;129.75;53.90;;;;;;;1.69;88.52;101179.91;1688736;83;25834;-73
2021/11/14 03:40:15;;;;;;;139.57;52.20;;;;;;;1.67;88.65;101180.34;1690972;82;99152;-71
2021/11/14 03:42:41;;;;;;;142.43;48.70;;;;;;;1.62;88.52;101176.37;1692441;82;27406;-72
2021/11/14 03:45:09;;;;;;;136.97;48.85;;;;;;;1.50;88.36;101179.87;1692226;82;25693;-71
2021/11/14 03:47:38;;;;;;;129.65;50.48;;;;;;;1.41;88.38;101184.26;1688283;82;99004;-72
2021/11/14 03:50:08;;;;;;;135.25;50.35;;;;;;;1.37;88.48;101192.61;1692727;82;25978;-73
2021/11/14 03:52:35;;;;;;;131.65;51.37;;;;;;;1.39;88.70;101194.81;1692406;83;99230;-72
2021/11/14 03:55:02;;;;;;;109.32;47.33;;;;;;;1.41;88.77;101200.98;1689513;83;28157;-71
2021/11/14 03:57:28;;;;;;;121.55;51.65;;;;;;;1.41;88.76;101198.34;1687935;83;25868;-73
2021/11/14 03:59:54;;;;;;;135.90;52.33;;;;;;;1.44;88.85;101202.75;1690238;83;98968;-71
2021/11/14 04:02:20;;;;;;;114.62;47.48;;;;;;;1.45;88.81;101204.08;1691833;83;27876;-72
2021/11/14 04:04:46;;;;;;;116.75;47.15;;;;;;;1.43;88.73;101204.95;1691298;83;99064;-71
2021/11/14 04:07:12;;;;;;;130.75;51.98;;;;;;;1.39;88.75;101201.86;1694330;83;28156;-72
2021/11/14 04:09:38;;;;;;;101.80;46.15;;;;;;;1.39;88.77;101206.70;1690594;82;26114;-73
2021/11/14 04:12:06;;;;;;;114.55;46.95;;;;;;;1.39;88.80;101204.06;1686097;83;99483;-71
2021/11/14 04:14:32;;;;;;;122.78;47.48;;;;;;;1.35;88.70;101206.25;1691862;82;25822;-72
2021/11/14 04:16:58;;;;;;;129.27;51.18;;;;;;;1.31;88.69;101209.76;1689812;83;98933;-72
2021/11/14 04:19:26;;;;;;;125.40;48.78;;;;;;;1.30;88.84;101209.31;1691565;83;29604;-72
2021/11/14 04:21:51;;;;;;;125.65;49.42;;;;;;;1.29;88.81;101213.71;1688443;83;25847;-72
2021/11/14 04:24:17;;;;;;;123.10;46.70;;;;;;;1.24;88.72;101215.45;1692611;83;98988;-72
2021/11/14 04:26:43;;;;;;;120.05;48.52;;;;;;;1.20;88.70;101219.40;1693162;83;25843;-73
2021/11/14 04:29:09;;;;;;;116.75;48.28;;;;;;;1.19;88.85;101221.59;1691362;83;99052;-72
2021/11/14 04:31:35;;;;;;;119.75;46.40;;;;;;;1.23;88.98;101224.69;1691946;82;27780;-72
2021/11/14 04:34:00;;;;;;;115.42;49.10;;;;;;;1.23;88.92;101223.37;1691358;83;25826;-72
2021/11/14 04:36:26;;;;;;;127.47;51.92;;;;;;;1.20;88.88;101222.04;1690615;83;98995;-73
2021/11/14 04:38:52;;;;;;;120.65;47.50;;;;;;;1.20;88.92;101226.88;1694206;83;27869;-72
2021/11/14 04:41:18;;;;;;;121.67;46.00;;;;;;;1.18;88.91;101226.44;1689815;83;98932;-72
2021/11/14 04:43:44;;;;;;;129.63;45.92;;;;;;;1.17;88.87;101229.95;1688368;82;28476;-72
2021/11/14 04:46:10;;;;;;;117.93;46.75;;;;;;;1.08;88.68;101234.75;1688999;83;26114;-71
2021/11/14 04:48:36;;;;;;;120.33;45.20;;;;;;;1.01;88.77;101230.75;1688597;82;98766;-74
2021/11/14 04:51:02;;;;;;;128.68;45.85;;;;;;;1.03;88.90;101232.97;1691998;83;25852;-73
2021/11/14 04:53:28;;;;;;;113.05;46.33;;;;;;;1.03;88.95;101236.92;1689899;82;98957;-72
2021/11/14 04:55:54;;;;;;;136.07;47.58;;;;;;;1.02;88.93;101240.44;1691969;83;27975;-72
2021/11/14 04:58:19;;;;;;;125.58;47.25;;;;;;;1.02;88.99;101237.36;1694828;83;99180;-73
2021/11/14 05:00:50;;;;;;;126.80;45.43;;;;;;;1.02;89.03;101247.91;1692668;82;25863;-72
2021/11/14 05:03:18;;;;;;;120.47;46.65;;;;;;;1.01;88.99;101246.16;1675613;83;27867;-73
2021/11/14 05:05:45;;;;;;;150.35;47.17;;;;;;;1.02;89.06;101249.67;1680292;83;98867;-73
2021/11/14 05:08:11;;;;;;;127.20;49.25;;;;;;;1.02;89.04;101251.00;1673324;83;27348;-73
2021/11/14 05:10:38;;;;;;;128.23;48.48;;;;;;;0.97;88.95;101248.33;1675847;83;99204;-72
2021/11/14 05:13:05;;;;;;;126.97;48.08;;;;;;;0.96;89.05;101251.41;1684900;82;25749;-76
2021/11/14 05:15:33;;;;;;;135.95;50.38;;;;;;;1.01;89.13;101254.51;1681997;83;25815;-73
2021/11/14 05:17:59;;;;;;;132.20;50.03;;;;;;;1.03;89.18;101255.40;1682389;83;98099;-73
2021/11/14 05:20:25;;;;;;;136.62;47.58;;;;;;;1.04;89.16;101259.80;1682057;83;27409;-72
2021/11/14 05:22:51;;;;;;;125.20;50.30;;;;;;;1.02;89.00;101265.52;1677435;83;99131;-72
2021/11/14 05:25:17;;;;;;;123.13;49.35;;;;;;;0.95;89.02;101272.08;1680617;83;25884;-73
2021/11/14 05:27:43;;;;;;;111.47;45.50;;;;;;;0.98;89.18;101277.37;1682685;83;25896;-73
2021/11/14 05:30:11;;;;;;;118.80;46.83;;;;;;;0.95;88.99;101282.64;1680298;83;98961;-73
2021/11/14 05:32:37;;;;;;;125.67;48.33;;;;;;;0.96;89.17;101287.48;1681882;83;27476;-72
2021/11/14 05:35:06;;;;;;;117.13;48.05;;;;;;;0.99;89.27;101288.81;1676974;83;98862;-73
2021/11/14 05:37:32;;;;;;;123.78;45.40;;;;;;;1.03;89.19;101293.67;1681616;83;25851;-73
2021/11/14 05:39:58;;;;;;;123.90;46.70;;;;;;;1.01;89.15;101287.50;1679415;83;25898;-72
2021/11/14 05:42:24;;;;;;;126.60;48.05;;;;;;;1.00;89.14;101298.94;1684794;83;99043;-72
2021/11/14 05:44:49;;;;;;;123.13;46.35;;;;;;;0.96;89.14;101300.23;1676294;83;29620;-72
2021/11/14 05:47:15;;;;;;;127.15;45.98;;;;;;;0.95;89.14;101302.43;1680521;83;98957;-74
2021/11/14 05:49:41;;;;;;;124.27;47.55;;;;;;;0.95;89.18;101301.11;1680282;83;31015;-75
2021/11/14 05:52:08;;;;;;;133.10;48.05;;;;;;;0.97;89.29;101313.00;1679740;83;26089;-72
2021/11/14 05:54:34;;;;;;;117.00;46.53;;;;;;;1.00;89.36;101310.38;1677554;83;99196;-72
2021/11/14 05:57:00;;;;;;;120.22;44.73;;;;;;;1.07;89.49;101314.82;1686340;83;27534;-72
2021/11/14 05:59:36;;;;;;;124.58;43.78;;;;;;;1.12;89.52;101321.02;1679307;83;98868;-72
2021/11/14 06:02:05;;;;;;;110.97;42.83;;;;;;;1.16;89.50;101322.80;1679079;83;25769;-73
2021/11/14 06:04:29;;;;;;;117.77;44.50;;;;;;;1.20;89.55;101327.22;1682720;83;99186;-72
2021/11/14 06:06:51;;;;;;;121.15;41.95;;;;;;;1.23;89.47;101331.63;1682724;83;25740;-72
2021/11/14 06:09:17;;;;;;;110.22;43.92;;;;;;;1.20;89.38;101337.78;1681468;83;27485;-72
2021/11/14 06:11:43;;;;;;;137.10;42.70;;;;;;;1.20;89.40;101343.50;1677580;83;99046;-71
2021/11/14 06:14:09;;;;;;;108.10;44.10;;;;;;;1.16;89.26;101343.92;1688630;83;26162;-72
2021/11/14 06:16:35;;;;;;;109.10;41.13;;;;;;;1.07;89.13;101349.58;1683566;83;99148;-71
2021/11/14 06:19:01;;;;;;;108.27;42.85;;;;;;;1.08;89.34;101366.75;1686939;83;25788;-71
2021/11/14 06:21:27;;;;;;;102.80;41.58;;;;;;;1.05;89.27;101363.20;1687958;83;27835;-71
2021/11/14 06:23:53;;;;;;;111.95;42.95;;;;;;;1.02;89.27;101373.73;1684985;83;98976;-72
2021/11/14 06:26:20;;;;;;;99.50;40.30;;;;;;;0.98;89.21;101382.95;1692465;83;25735;-72
2021/11/14 06:28:46;;;;;;;104.23;40.85;;;;;;;0.97;89.39;101386.91;1667068;84;99044;-72
2021/11/14 06:31:12;;;;;;;110.08;40.45;;;;;;;1.04;89.51;101394.44;1688256;83;25694;-72
2021/11/14 06:33:38;;;;;;;97.80;39.92;;;;;;;1.05;89.41;101400.16;1689049;83;29588;-73
2021/11/14 06:36:04;;;;;;;108.17;43.98;;;;;;;1.08;89.52;101408.10;1685150;83;98773;-73
2021/11/14 06:38:30;;;;;;;106.58;42.62;;;;;;;1.12;89.61;101408.57;1689137;83;25720;-73
2021/11/14 06:40:56;;;;;;;98.72;37.20;;;;;;;1.16;89.67;101416.53;1682475;83;99217;-75
2021/11/14 06:43:22;;;;;;;107.20;41.42;;;;;;;1.19;89.53;101414.34;1686939;83;25706;-72
2021/11/14 06:45:48;;;;;;;118.47;43.17;;;;;;;1.16;89.51;101414.32;1685881;83;29589;-72
2021/11/14 06:48:14;;;;;;;105.78;39.85;;;;;;;1.17;89.52;101422.69;1687072;83;98915;-71
2021/11/14 06:50:40;;;;;;;108.75;42.25;;;;;;;1.15;89.43;101431.03;1684289;83;25815;-72
2021/11/14 06:53:06;;;;;;;120.13;40.35;;;;;;;1.12;89.42;101431.90;1683121;83;98986;-72
2021/11/14 06:55:32;;;;;;;114.60;43.87;;;;;;;1.07;89.32;101432.73;1691006;83;25765;-72
2021/11/14 06:57:59;;;;;;;108.37;41.48;;;;;;;1.01;89.33;101437.96;1684568;83;29470;-71
2021/11/14 07:00:26;;;;;;;118.07;41.70;;;;;;;1.01;89.41;101440.17;1687750;83;99068;-72
2021/11/14 07:02:52;;;;;;;109.00;40.88;;;;;;;0.95;89.30;101448.03;1690663;83;25557;-71
2021/11/14 07:05:18;;;;;;;114.72;41.00;;;;;;;0.88;89.39;101447.09;1684376;83;99017;-74
2021/11/14 07:07:45;;;;;;;118.60;40.63;;;;;;;0.92;89.53;101450.21;1693930;83;25792;-72
2021/11/14 07:10:14;;;;;;;103.15;42.78;;;;;;;0.97;89.71;101453.77;1688412;83;27375;-72
2021/11/14 07:12:41;;;;;;;112.15;39.13;;;;;;;1.01;89.68;101452.48;1686538;83;97964;-74
2021/11/14 07:15:12;;;;;;;109.67;39.85;;;;;;;1.07;89.78;101448.14;1682844;83;25773;-73
2021/11/14 07:17:38;;;;;;;;;;;;;;;1.13;89.75;101460.06;1683211;83;99254;-72
2021/11/14 07:20:07;;;;;;;101.85;37.42;;;;;;;1.09;89.53;101462.23;1684781;83;26217;-71
2021/11/14 07:22:33;;;;;;;96.60;36.28;;;;;;;1.03;89.51;101477.14;1679360;83;99044;-71
2021/11/14 07:24:58;;;;;;;93.12;36.65;;;;;;;1.05;89.68;101474.95;1680696;83;33256;-71
2021/11/14 07:27:24;;;;;;;104.17;38.13;;;;;;;1.03;89.56;101481.09;1683081;83;26368;-72
2021/11/14 07:29:50;;;;;;;97.47;38.45;;;;;;;0.95;89.50;101481.91;1679210;83;98903;-72
2021/11/14 07:32:18;;;;;;;94.55;39.88;;;;;;;0.97;89.67;101478.85;1679664;83;25700;-71
2021/11/14 07:34:46;;;;;;;86.85;36.35;;;;;;;1.05;89.89;101480.23;1680148;83;99039;-71
2021/11/14 07:37:13;;;;;;;99.07;38.73;;;;;;;1.13;89.89;101482.95;1681733;83;25767;-72
2021/11/14 07:39:38;;;;;;;95.75;38.55;;;;;;;1.16;89.86;101484.30;1679786;83;25787;-71
2021/11/14 07:42:06;;;;;;;88.05;37.55;;;;;;;1.13;89.79;101485.59;1677711;83;98860;-71
2021/11/14 07:44:32;;;;;;;95.28;35.28;;;;;;;1.18;89.84;101491.79;1685293;83;25748;-70
2021/11/14 07:46:58;;;;;;;91.97;39.00;;;;;;;1.17;89.74;101492.23;1681656;83;99103;-71
2021/11/14 07:49:24;;;;;;;84.77;36.42;;;;;;;1.17;89.82;101496.62;1682302;83;31006;-72
2021/11/14 07:51:50;;;;;;;88.97;37.33;;;;;;;1.22;89.88;101495.79;1678736;83;25751;-72
2021/11/14 07:54:16;;;;;;;84.92;34.63;;;;;;;1.23;89.87;101495.36;1679709;83;98945;-71
2021/11/14 07:56:43;;;;;;;87.00;35.83;;;;;;;1.28;90.00;101489.23;1675766;83;25854;-72
2021/11/14 07:59:10;;;;;;;78.92;33.55;;;;;;;1.34;89.98;101494.13;1680910;83;98833;-71
2021/11/14 08:01:35;;;;;;;89.40;37.60;;;;;;;1.31;89.83;101501.58;1683349;83;25890;-72
2021/11/14 08:04:01;;;;;;;76.15;35.43;;;;;;;1.35;89.99;101511.73;1679821;83;26529;-72
2021/11/14 08:06:27;;;;;;;89.13;36.63;;;;;;;1.44;90.14;101509.16;1678041;83;98678;-72
2021/11/14 08:08:53;;;;;;;86.65;36.70;;;;;;;1.52;90.23;101510.11;1683181;83;25669;-72
2021/11/14 08:11:19;;;;;;;73.80;32.98;;;;;;;1.56;90.15;101514.11;1681473;83;99234;-71
2021/11/14 08:13:45;;;;;;;89.40;35.75;;;;;;;1.61;90.09;101516.78;1683106;83;25882;-72
2021/11/14 08:16:11;;;;;;;85.03;34.75;;;;;;;1.62;90.12;101518.11;1694381;82;25885;-72
2021/11/14 08:18:37;;;;;;;90.15;37.78;;;;;;;1.69;90.16;101519.48;1689259;82;99116;-71
2021/11/14 08:21:02;;;;;;;94.70;36.58;;;;;;;1.74;90.20;101520.39;1690416;83;25898;-74
2021/11/14 08:23:28;;;;;;;97.95;37.63;;;;;;;1.80;90.26;101523.08;1688927;83;99247;-71
2021/11/14 08:25:56;;;;;;;95.87;37.15;;;;;;;1.83;90.16;101524.42;1686128;83;25954;-71
2021/11/14 08:28:23;;;;;;;89.32;35.98;;;;;;;1.81;90.05;101526.17;1689979;82;98951;-71
2021/11/14 08:30:49;;;;;;;92.25;38.38;;;;;;;1.84;90.09;101528.83;1690572;82;25837;-72
2021/11/14 08:33:15;;;;;;;88.20;36.35;;;;;;;1.87;90.15;101532.81;1692569;82;25728;-71
2021/11/14 08:35:41;;;;;;;96.45;39.27;;;;;;;1.90;90.21;101532.84;1693544;82;98857;-71
2021/11/14 08:38:08;;;;;;;92.85;37.73;;;;;;;1.93;90.30;101541.67;1691700;83;25746;-76
2021/11/14 08:40:37;;;;;;;97.62;37.98;;;;;;;2.02;90.36;101544.80;1692242;82;98808;-71
2021/11/14 08:43:07;;;;;;;84.62;34.73;;;;;;;2.03;90.21;101547.02;1690412;82;26533;-71
2021/11/14 08:45:35;;;;;;;100.62;37.55;;;;;;;2.05;90.26;101556.72;1690917;82;26271;-70
2021/11/14 08:48:02;;;;;;;93.20;37.88;;;;;;;1.99;90.08;101554.48;1694685;82;98957;-70
2021/11/14 08:50:30;;;;;;;95.12;38.70;;;;;;;2.00;90.24;101558.45;1693910;83;26016;-73
2021/11/14 08:52:58;;;;;;;96.12;38.00;;;;;;;2.09;90.44;101557.62;1691341;82;98954;-70
2021/11/14 08:55:27;;;;;;;97.60;40.05;;;;;;;2.15;90.42;101564.27;1688674;82;26132;-70
2021/11/14 08:57:55;;;;;;;83.78;36.23;;;;;;;2.20;90.47;101559.89;1690309;83;25848;-71
2021/11/14 09:00:27;;;;;;;90.60;36.55;;;;;;;2.29;90.54;101573.16;1685878;82;98869;-70
2021/11/14 09:02:55;;;;;;;93.72;37.05;;;;;;;2.34;90.48;101570.55;1684026;82;25735;-70
2021/11/14 09:05:24;;;;;;;88.30;37.20;;;;;;;2.40;90.50;101574.55;1689271;83;98702;-70
2021/11/14 09:07:51;;;;;;;104.53;43.63;;;;;;;2.42;90.42;101569.70;1690170;82;25828;-70
2021/11/14 09:10:18;;;;;;;96.00;39.03;;;;;;;2.49;90.55;101572.83;1687962;82;99202;-69
2021/11/14 09:12:44;;;;;;;90.47;37.60;;;;;;;2.58;90.62;101572.87;1687564;82;27490;-71
2021/11/14 09:15:11;;;;;;;85.32;33.92;;;;;;;2.68;90.68;101578.16;1690109;83;25740;-71
2021/11/14 09:17:39;;;;;;;93.52;39.83;;;;;;;2.74;90.67;101583.04;1692868;83;98872;-72
2021/11/14 09:20:07;;;;;;;91.20;34.78;;;;;;;2.77;90.57;101582.17;1688182;82;26542;-72
2021/11/14 09:22:35;;;;;;;87.05;36.05;;;;;;;2.79;90.48;101587.03;1689227;83;98885;-72
2021/11/14 09:25:01;;;;;;;97.30;36.30;;;;;;;2.76;90.46;101589.22;1690411;82;27914;-72
2021/11/14 09:27:27;;;;;;;90.28;36.68;;;;;;;2.74;90.41;101593.63;1696923;83;26626;-74
2021/11/14 09:29:53;;;;;;;92.10;36.30;;;;;;;2.74;90.47;101594.95;1691839;83;98934;-71
2021/11/14 09:32:19;;;;;;;94.25;35.78;;;;;;;2.82;90.59;101597.19;1693967;82;25788;-72
2021/11/14 09:34:45;;;;;;;89.87;37.28;;;;;;;2.85;90.59;101601.17;1686337;83;98918;-71
2021/11/14 09:37:11;;;;;;;90.20;36.58;;;;;;;2.96;90.74;101601.20;1691437;82;27468;-69
2021/11/14 09:39:37;;;;;;;94.30;35.40;;;;;;;3.00;90.63;101599.02;1690727;83;26458;-68
2021/11/14 09:42:05;;;;;;;99.45;36.98;;;;;;;3.03;90.61;101607.41;1690975;83;98674;-68
2021/11/14 09:44:31;;;;;;;95.22;37.20;;;;;;;3.07;90.64;101606.09;1689122;83;25804;-68
2021/11/14 09:47:01;;;;;;;87.78;34.30;;;;;;;3.12;90.69;101609.64;1686972;83;98981;-69
2021/11/14 09:49:31;;;;;;;94.10;36.68;;;;;;;3.14;90.57;101615.83;1695544;82;27859;-69
2021/11/14 09:52:01;;;;;;;95.30;34.92;;;;;;;3.10;90.45;101610.52;1687976;83;26232;-69
2021/11/14 09:54:31;;;;;;;92.85;35.35;;;;;;;3.13;90.60;101618.03;1689599;82;98818;-69
2021/11/14 09:56:59;;;;;;;95.38;36.98;;;;;;;3.12;90.53;101616.26;1688650;83;26523;-71
2021/11/14 09:59:26;;;;;;;90.97;34.38;;;;;;;3.16;90.65;101614.50;1692702;82;97914;-71
2021/11/14 10:01:55;;;;;;;93.78;35.03;;;;;;;3.19;90.62;101614.51;1687297;83;27468;-69
2021/11/14 10:04:22;;;;;;;94.03;36.53;;;;;;;3.20;90.58;101622.91;1692327;83;98991;-68
2021/11/14 10:07:15;;;;;;;97.15;36.15;;;;;;;3.24;90.69;101618.05;1691288;83;25818;-70
2021/11/14 10:09:49;;;;;;;91.67;35.65;;;;;;;3.30;90.78;101620.72;1690884;82;26092;-69
2021/11/14 10:12:22;;;;;;;94.47;35.20;;;;;;;3.34;90.69;101622.49;1689631;83;98586;-72
2021/11/14 10:15:06;;;;;;;89.92;35.60;;;;;;;3.35;90.67;101622.94;1682680;83;28458;-71
2021/11/14 10:17:32;;;;;;;102.78;41.10;;;;;;;3.39;90.73;101624.70;1668762;84;98837;-69
2021/11/14 10:20:21;;;;;;;93.78;36.10;;;;;;;3.47;90.82;101632.23;1665349;84;26245;-70
2021/11/14 10:22:51;;;;;;;88.92;34.67;;;;;;;3.51;90.78;101623.41;1688998;83;98975;-72
2021/11/14 10:25:17;;;;;;;103.12;38.95;;;;;;;3.55;90.78;101623.84;1691313;82;25983;-70
2021/11/14 10:27:53;;;;;;;99.87;37.73;;;;;;;3.52;90.65;101625.17;1672078;84;28180;-69
2021/11/14 10:30:25;;;;;;;96.90;37.13;;;;;;;3.53;90.60;101626.05;1691497;83;99337;-70
2021/11/14 10:32:52;;;;;;;;;;;;;;;3.57;90.73;101623.41;1673439;84;25835;-69
2021/11/14 10:35:18;;;;;;;98.62;36.90;;;;;;;3.61;90.75;101626.95;1672468;84;83626;-76
2021/11/14 10:37:44;;;;;;;112.28;40.63;;;;;;;3.64;90.73;101624.73;1697179;83;25889;-75
2021/11/14 10:40:18;;;;;;;95.12;36.58;;;;;;;3.63;90.67;101629.16;1669735;84;27377;-75
2021/11/14 10:42:49;;;;;;;95.12;36.13;;;;;;;3.72;90.83;101633.14;1665515;84;98667;-74
2021/11/14 10:45:16;;;;;;;86.67;33.55;;;;;;;3.81;90.79;101632.26;1672582;84;25899;-74
2021/11/14 10:47:42;;;;;;;92.05;35.83;;;;;;;3.83;90.73;101630.48;1693744;83;98932;-74
2021/11/14 10:50:13;;;;;;;88.07;33.95;;;;;;;3.85;90.72;101636.68;1672535;84;25921;-74
2021/11/14 10:52:52;;;;;;;93.87;34.73;;;;;;;3.91;90.73;101640.66;1696013;82;98834;-73
2021/11/14 10:55:19;;;;;;;89.47;33.95;;;;;;;3.93;90.65;101635.35;1692821;83;25818;-74
2021/11/14 10:57:44;;;;;;;106.00;37.73;;;;;;;3.97;90.66;101635.80;1679674;84;25737;-74
2021/11/14 11:00:13;;;;;;;105.27;38.98;;;;;;;3.94;90.60;101631.38;1694850;83;98882;-74
2021/11/14 11:02:42;;;;;;;116.67;42.45;;;;;;;4.01;90.64;101637.11;1672328;84;25873;-74
2021/11/14 11:05:16;;;;;;;104.17;38.25;;;;;;;4.09;90.76;101633.13;1693926;83;98922;-74
2021/11/14 11:07:58;;;;;;;92.97;35.23;;;;;;;4.15;90.74;101631.80;1666242;84;25817;-74
2021/11/14 11:10:31;;;;;;;109.30;39.60;;;;;;;4.12;90.55;101635.34;1693332;83;98983;-73
2021/11/14 11:13:00;;;;;;;104.27;35.43;;;;;;;4.15;90.68;101635.33;1694017;83;25760;-73